sensor_id;sensor_type;location;lat;lon;timestamp;temperature;humidity
66576;SHT31;53428;47.686;16.584;2023-08-17T00:00:08;19.26;93.33
66576;SHT31;53428;47.686;16.584;2023-08-17T00:05:09;19.26;93.46
66576;SHT31;53428;47.686;16.584;2023-08-17T00:10:09;19.26;93.42
66576;SHT31;53428;47.686;16.584;2023-08-17T00:15:09;19.21;93.69
66576;SHT31;53428;47.686;16.584;2023-08-17T00:20:08;19.33;93.44
66576;SHT31;53428;47.686;16.584;2023-08-17T00:25:08;19.29;93.48
66576;SHT31;53428;47.686;16.584;2023-08-17T00:30:08;19.01;94.52
66576;SHT31;53428;47.686;16.584;2023-08-17T00:35:08;18.85;95.20
66576;SHT31;53428;47.686;16.584;2023-08-17T00:40:07;18.77;95.20
66576;SHT31;53428;47.686;16.584;2023-08-17T00:45:07;18.64;95.04
66576;SHT31;53428;47.686;16.584;2023-08-17T00:50:07;18.47;95.48
66576;SHT31;53428;47.686;16.584;2023-08-17T00:55:07;18.47;95.88
66576;SHT31;53428;47.686;16.584;2023-08-17T01:00:08;18.52;96.04
66576;SHT31;53428;47.686;16.584;2023-08-17T01:05:08;18.57;95.80
66576;SHT31;53428;47.686;16.584;2023-08-17T01:10:08;18.57;95.63
66576;SHT31;53428;47.686;16.584;2023-08-17T01:20:10;18.49;96.08
66576;SHT31;53428;47.686;16.584;2023-08-17T01:25:11;18.45;96.40
66576;SHT31;53428;47.686;16.584;2023-08-17T01:30:12;18.46;96.52
66576;SHT31;53428;47.686;16.584;2023-08-17T01:41:04;18.32;96.92
66576;SHT31;53428;47.686;16.584;2023-08-17T01:46:04;18.39;96.59
66576;SHT31;53428;47.686;16.584;2023-08-17T01:51:04;18.30;96.75
66576;SHT31;53428;47.686;16.584;2023-08-17T01:56:03;18.13;96.64
66576;SHT31;53428;47.686;16.584;2023-08-17T02:01:03;17.99;97.07
66576;SHT31;53428;47.686;16.584;2023-08-17T02:06:02;17.84;97.93
66576;SHT31;53428;47.686;16.584;2023-08-17T02:11:02;17.78;98.35
66576;SHT31;53428;47.686;16.584;2023-08-17T02:16:01;17.85;98.12
66576;SHT31;53428;47.686;16.584;2023-08-17T02:21:01;17.94;97.92
66576;SHT31;53428;47.686;16.584;2023-08-17T02:26:00;18.06;97.55
66576;SHT31;53428;47.686;16.584;2023-08-17T02:31:00;18.15;97.03
66576;SHT31;53428;47.686;16.584;2023-08-17T02:35:59;18.15;97.20
66576;SHT31;53428;47.686;16.584;2023-08-17T02:40:58;18.21;96.93
66576;SHT31;53428;47.686;16.584;2023-08-17T02:45:58;18.29;96.62
66576;SHT31;53428;47.686;16.584;2023-08-17T02:50:58;18.21;96.63
66576;SHT31;53428;47.686;16.584;2023-08-17T02:55:58;18.25;96.45
66576;SHT31;53428;47.686;16.584;2023-08-17T03:00:57;18.24;96.55
66576;SHT31;53428;47.686;16.584;2023-08-17T03:05:56;18.21;96.77
66576;SHT31;53428;47.686;16.584;2023-08-17T03:10:56;18.12;96.96
66576;SHT31;53428;47.686;16.584;2023-08-17T03:15:55;17.94;97.45
66576;SHT31;53428;47.686;16.584;2023-08-17T03:20:55;17.71;97.79
66576;SHT31;53428;47.686;16.584;2023-08-17T03:25:54;17.55;98.26
66576;SHT31;53428;47.686;16.584;2023-08-17T03:30:56;17.47;98.83
66576;SHT31;53428;47.686;16.584;2023-08-17T03:35:56;17.34;98.95
66576;SHT31;53428;47.686;16.584;2023-08-17T03:40:55;17.33;99.50
66576;SHT31;53428;47.686;16.584;2023-08-17T03:45:55;17.32;99.54
66576;SHT31;53428;47.686;16.584;2023-08-17T03:50:55;17.27;99.77
66576;SHT31;53428;47.686;16.584;2023-08-17T03:55:54;17.22;99.80
66576;SHT31;53428;47.686;16.584;2023-08-17T04:00:53;17.24;99.64
66576;SHT31;53428;47.686;16.584;2023-08-17T04:05:52;17.13;99.95
66576;SHT31;53428;47.686;16.584;2023-08-17T04:10:51;17.18;99.99
66576;SHT31;53428;47.686;16.584;2023-08-17T04:15:52;17.19;99.99
66576;SHT31;53428;47.686;16.584;2023-08-17T04:20:51;17.24;99.99
66576;SHT31;53428;47.686;16.584;2023-08-17T04:25:51;17.32;99.77
66576;SHT31;53428;47.686;16.584;2023-08-17T04:30:50;17.46;99.58
66576;SHT31;53428;47.686;16.584;2023-08-17T04:35:49;17.59;99.34
66576;SHT31;53428;47.686;16.584;2023-08-17T04:40:48;17.74;98.82
66576;SHT31;53428;47.686;16.584;2023-08-17T04:45:47;17.95;98.06
66576;SHT31;53428;47.686;16.584;2023-08-17T04:50:47;18.15;97.32
66576;SHT31;53428;47.686;16.584;2023-08-17T04:55:47;18.28;96.73
66576;SHT31;53428;47.686;16.584;2023-08-17T05:00:46;18.28;96.73
66576;SHT31;53428;47.686;16.584;2023-08-17T05:05:45;18.43;96.41
66576;SHT31;53428;47.686;16.584;2023-08-17T05:10:45;18.47;96.18
66576;SHT31;53428;47.686;16.584;2023-08-17T05:15:44;18.68;95.88
66576;SHT31;53428;47.686;16.584;2023-08-17T05:20:43;18.81;95.70
66576;SHT31;53428;47.686;16.584;2023-08-17T05:25:46;18.97;95.33
66576;SHT31;53428;47.686;16.584;2023-08-17T05:30:46;19.11;95.05
66576;SHT31;53428;47.686;16.584;2023-08-17T05:35:46;19.38;94.23
66576;SHT31;53428;47.686;16.584;2023-08-17T05:40:45;19.41;93.80
66576;SHT31;53428;47.686;16.584;2023-08-17T05:45:44;19.62;93.79
66576;SHT31;53428;47.686;16.584;2023-08-17T05:50:44;19.81;92.94
66576;SHT31;53428;47.686;16.584;2023-08-17T05:55:43;19.94;92.50
66576;SHT31;53428;47.686;16.584;2023-08-17T06:00:42;20.11;91.90
66576;SHT31;53428;47.686;16.584;2023-08-17T06:05:41;20.29;91.54
66576;SHT31;53428;47.686;16.584;2023-08-17T06:10:41;20.16;92.13
66576;SHT31;53428;47.686;16.584;2023-08-17T06:15:40;20.16;92.26
66576;SHT31;53428;47.686;16.584;2023-08-17T06:20:39;20.18;91.90
66576;SHT31;53428;47.686;16.584;2023-08-17T06:25:39;20.13;92.57
66576;SHT31;53428;47.686;16.584;2023-08-17T06:30:38;20.32;92.33
66576;SHT31;53428;47.686;16.584;2023-08-17T06:35:37;20.51;92.42
66576;SHT31;53428;47.686;16.584;2023-08-17T06:40:37;20.61;92.14
66576;SHT31;53428;47.686;16.584;2023-08-17T06:45:36;20.73;92.18
66576;SHT31;53428;47.686;16.584;2023-08-17T06:50:36;20.86;92.10
66576;SHT31;53428;47.686;16.584;2023-08-17T06:55:35;21.00;91.79
66576;SHT31;53428;47.686;16.584;2023-08-17T07:00:35;20.97;92.73
66576;SHT31;53428;47.686;16.584;2023-08-17T07:05:34;21.40;91.80
66576;SHT31;53428;47.686;16.584;2023-08-17T07:10:34;21.82;90.98
66576;SHT31;53428;47.686;16.584;2023-08-17T07:15:33;21.85;90.89
66576;SHT31;53428;47.686;16.584;2023-08-17T07:20:32;22.14;90.39
66576;SHT31;53428;47.686;16.584;2023-08-17T07:25:32;22.23;89.64
66576;SHT31;53428;47.686;16.584;2023-08-17T07:30:32;22.57;87.65
66576;SHT31;53428;47.686;16.584;2023-08-17T07:35:31;22.44;88.10
66576;SHT31;53428;47.686;16.584;2023-08-17T07:40:30;22.60;87.12
66576;SHT31;53428;47.686;16.584;2023-08-17T07:45:29;23.02;85.59
66576;SHT31;53428;47.686;16.584;2023-08-17T07:50:28;22.90;85.99
66576;SHT31;53428;47.686;16.584;2023-08-17T07:55:27;23.02;86.12
66576;SHT31;53428;47.686;16.584;2023-08-17T08:00:26;23.19;85.45
66576;SHT31;53428;47.686;16.584;2023-08-17T08:05:26;23.45;84.68
66576;SHT31;53428;47.686;16.584;2023-08-17T08:10:25;23.43;84.48
66576;SHT31;53428;47.686;16.584;2023-08-17T08:15:24;23.15;83.44
66576;SHT31;53428;47.686;16.584;2023-08-17T08:20:23;23.18;84.72
66576;SHT31;53428;47.686;16.584;2023-08-17T08:25:22;23.33;84.40
66576;SHT31;53428;47.686;16.584;2023-08-17T08:30:21;22.94;85.90
66576;SHT31;53428;47.686;16.584;2023-08-17T08:35:21;23.01;87.27
66576;SHT31;53428;47.686;16.584;2023-08-17T08:40:27;23.08;87.31
66576;SHT31;53428;47.686;16.584;2023-08-17T08:45:27;23.77;85.86
66576;SHT31;53428;47.686;16.584;2023-08-17T08:50:31;23.87;84.78
66576;SHT31;53428;47.686;16.584;2023-08-17T08:55:34;24.15;83.39
66576;SHT31;53428;47.686;16.584;2023-08-17T09:00:36;24.70;80.18
66576;SHT31;53428;47.686;16.584;2023-08-17T09:05:37;25.18;79.02
66576;SHT31;53428;47.686;16.584;2023-08-17T09:10:36;25.88;75.53
66576;SHT31;53428;47.686;16.584;2023-08-17T09:15:35;25.92;74.34
66576;SHT31;53428;47.686;16.584;2023-08-17T09:20:43;26.09;73.73
66576;SHT31;53428;47.686;16.584;2023-08-17T09:25:45;25.72;72.18
66576;SHT31;53428;47.686;16.584;2023-08-17T09:30:59;26.89;68.81
66576;SHT31;53428;47.686;16.584;2023-08-17T09:35:59;27.34;67.98
66576;SHT31;53428;47.686;16.584;2023-08-17T09:40:59;26.89;67.39
66576;SHT31;53428;47.686;16.584;2023-08-17T09:46:00;26.43;69.98
66576;SHT31;53428;47.686;16.584;2023-08-17T09:51:01;27.43;66.74
66576;SHT31;53428;47.686;16.584;2023-08-17T09:56:01;26.77;67.94
66576;SHT31;53428;47.686;16.584;2023-08-17T10:01:04;26.74;67.15
66576;SHT31;53428;47.686;16.584;2023-08-17T10:06:05;27.76;65.62
66576;SHT31;53428;47.686;16.584;2023-08-17T10:11:09;27.95;64.18
66576;SHT31;53428;47.686;16.584;2023-08-17T10:21:28;27.60;66.02
66576;SHT31;53428;47.686;16.584;2023-08-17T10:26:28;27.74;65.86
66576;SHT31;53428;47.686;16.584;2023-08-17T10:31:29;27.76;65.99
66576;SHT31;53428;47.686;16.584;2023-08-17T10:36:31;28.01;66.53
66576;SHT31;53428;47.686;16.584;2023-08-17T10:41:30;28.63;64.68
66576;SHT31;53428;47.686;16.584;2023-08-17T10:46:37;29.18;63.72
66576;SHT31;53428;47.686;16.584;2023-08-17T10:51:37;28.23;65.25
66576;SHT31;53428;47.686;16.584;2023-08-17T10:56:40;29.42;63.04
66576;SHT31;53428;47.686;16.584;2023-08-17T11:01:40;30.51;59.69
66576;SHT31;53428;47.686;16.584;2023-08-17T11:06:39;30.78;58.92
66576;SHT31;53428;47.686;16.584;2023-08-17T11:11:39;30.72;57.58
66576;SHT31;53428;47.686;16.584;2023-08-17T11:16:38;31.58;57.01
66576;SHT31;53428;47.686;16.584;2023-08-17T11:21:38;30.88;58.13
66576;SHT31;53428;47.686;16.584;2023-08-17T11:26:37;31.64;56.50
66576;SHT31;53428;47.686;16.584;2023-08-17T11:31:39;30.38;59.15
66576;SHT31;53428;47.686;16.584;2023-08-17T11:36:38;31.53;56.97
66576;SHT31;53428;47.686;16.584;2023-08-17T11:41:38;29.05;61.35
66576;SHT31;53428;47.686;16.584;2023-08-17T11:46:38;30.52;58.46
66576;SHT31;53428;47.686;16.584;2023-08-17T11:51:37;32.28;55.31
66576;SHT31;53428;47.686;16.584;2023-08-17T11:56:37;30.89;58.41
66576;SHT31;53428;47.686;16.584;2023-08-17T12:01:37;33.18;54.07
66576;SHT31;53428;47.686;16.584;2023-08-17T12:06:43;31.03;58.07
66576;SHT31;53428;47.686;16.584;2023-08-17T12:11:46;32.19;55.71
66576;SHT31;53428;47.686;16.584;2023-08-17T12:16:47;31.61;57.19
66576;SHT31;53428;47.686;16.584;2023-08-17T12:21:50;32.46;56.59
66576;SHT31;53428;47.686;16.584;2023-08-17T12:26:49;30.67;58.34
66576;SHT31;53428;47.686;16.584;2023-08-17T12:31:48;32.53;55.26
66576;SHT31;53428;47.686;16.584;2023-08-17T12:36:49;33.31;54.00
66576;SHT31;53428;47.686;16.584;2023-08-17T12:41:48;30.32;58.23
66576;SHT31;53428;47.686;16.584;2023-08-17T12:46:48;29.76;61.48
66576;SHT31;53428;47.686;16.584;2023-08-17T12:51:47;33.29;55.49
66576;SHT31;53428;47.686;16.584;2023-08-17T12:56:46;32.16;56.56
66576;SHT31;53428;47.686;16.584;2023-08-17T13:01:46;30.78;58.77
66576;SHT31;53428;47.686;16.584;2023-08-17T13:06:45;29.94;61.91
66576;SHT31;53428;47.686;16.584;2023-08-17T13:11:46;29.11;64.14
66576;SHT31;53428;47.686;16.584;2023-08-17T13:16:46;31.06;60.41
66576;SHT31;53428;47.686;16.584;2023-08-17T13:21:45;33.04;56.28
66576;SHT31;53428;47.686;16.584;2023-08-17T13:26:44;32.86;56.11
66576;SHT31;53428;47.686;16.584;2023-08-17T13:31:46;30.67;60.84
66576;SHT31;53428;47.686;16.584;2023-08-17T13:36:46;29.18;63.60
66576;SHT31;53428;47.686;16.584;2023-08-17T13:41:45;28.39;65.59
66576;SHT31;53428;47.686;16.584;2023-08-17T13:46:44;29.86;62.56
66576;SHT31;53428;47.686;16.584;2023-08-17T13:51:44;30.89;60.38
66576;SHT31;53428;47.686;16.584;2023-08-17T13:56:43;32.68;56.42
66576;SHT31;53428;47.686;16.584;2023-08-17T14:01:42;31.03;60.26
66576;SHT31;53428;47.686;16.584;2023-08-17T14:06:42;32.80;56.85
66576;SHT31;53428;47.686;16.584;2023-08-17T14:11:41;33.19;55.03
66576;SHT31;53428;47.686;16.584;2023-08-17T14:16:42;32.22;56.74
66576;SHT31;53428;47.686;16.584;2023-08-17T14:21:41;30.59;60.17
66576;SHT31;53428;47.686;16.584;2023-08-17T14:26:41;32.32;57.38
66576;SHT31;53428;47.686;16.584;2023-08-17T14:31:40;33.80;53.79
66576;SHT31;53428;47.686;16.584;2023-08-17T14:36:40;33.79;54.33
66576;SHT31;53428;47.686;16.584;2023-08-17T14:41:39;32.63;55.80
66576;SHT31;53428;47.686;16.584;2023-08-17T14:46:38;34.45;53.60
66576;SHT31;53428;47.686;16.584;2023-08-17T14:51:39;33.89;54.50
66576;SHT31;53428;47.686;16.584;2023-08-17T14:56:39;33.10;55.22
66576;SHT31;53428;47.686;16.584;2023-08-17T15:01:39;33.62;54.57
66576;SHT31;53428;47.686;16.584;2023-08-17T15:06:39;33.07;54.64
66576;SHT31;53428;47.686;16.584;2023-08-17T15:11:38;32.39;55.56
66576;SHT31;53428;47.686;16.584;2023-08-17T15:16:37;31.98;57.22
66576;SHT31;53428;47.686;16.584;2023-08-17T15:21:37;31.77;56.72
66576;SHT31;53428;47.686;16.584;2023-08-17T15:26:36;33.19;52.59
66576;SHT31;53428;47.686;16.584;2023-08-17T15:31:36;33.41;52.47
66576;SHT31;53428;47.686;16.584;2023-08-17T15:36:36;31.95;53.81
66576;SHT31;53428;47.686;16.584;2023-08-17T15:41:35;33.34;51.67
66576;SHT31;53428;47.686;16.584;2023-08-17T15:46:34;33.15;52.79
66576;SHT31;53428;47.686;16.584;2023-08-17T15:51:34;33.82;52.02
66576;SHT31;53428;47.686;16.584;2023-08-17T15:56:33;34.10;51.58
66576;SHT31;53428;47.686;16.584;2023-08-17T16:01:33;33.77;53.03
66576;SHT31;53428;47.686;16.584;2023-08-17T16:06:32;33.28;53.01
66576;SHT31;53428;47.686;16.584;2023-08-17T16:11:31;32.86;54.29
66576;SHT31;53428;47.686;16.584;2023-08-17T16:16:32;32.80;53.90
66576;SHT31;53428;47.686;16.584;2023-08-17T16:21:31;33.01;54.53
66576;SHT31;53428;47.686;16.584;2023-08-17T16:26:31;33.72;52.77
66576;SHT31;53428;47.686;16.584;2023-08-17T16:31:34;33.10;53.90
66576;SHT31;53428;47.686;16.584;2023-08-17T16:36:33;33.10;54.07
66576;SHT31;53428;47.686;16.584;2023-08-17T16:41:34;32.09;55.88
66576;SHT31;53428;47.686;16.584;2023-08-17T16:46:33;32.43;55.56
66576;SHT31;53428;47.686;16.584;2023-08-17T16:51:33;31.54;56.81
66576;SHT31;53428;47.686;16.584;2023-08-17T16:56:32;31.23;57.50
66576;SHT31;53428;47.686;16.584;2023-08-17T17:01:32;32.22;55.25
66576;SHT31;53428;47.686;16.584;2023-08-17T17:06:32;29.97;60.10
66576;SHT31;53428;47.686;16.584;2023-08-17T17:11:32;28.00;63.77
66576;SHT31;53428;47.686;16.584;2023-08-17T17:16:33;27.00;66.91
66576;SHT31;53428;47.686;16.584;2023-08-17T17:21:33;26.78;68.11
66576;SHT31;53428;47.686;16.584;2023-08-17T17:26:33;26.62;72.13
66576;SHT31;53428;47.686;16.584;2023-08-17T17:31:35;26.36;74.14
66576;SHT31;53428;47.686;16.584;2023-08-17T17:36:35;25.97;75.86
66576;SHT31;53428;47.686;16.584;2023-08-17T17:41:34;25.65;77.04
66576;SHT31;53428;47.686;16.584;2023-08-17T17:46:34;25.54;77.49
66576;SHT31;53428;47.686;16.584;2023-08-17T17:51:34;25.38;78.37
66576;SHT31;53428;47.686;16.584;2023-08-17T17:56:41;25.18;78.76
66576;SHT31;53428;47.686;16.584;2023-08-17T18:01:42;25.08;79.27
66576;SHT31;53428;47.686;16.584;2023-08-17T18:06:41;24.96;79.22
66576;SHT31;53428;47.686;16.584;2023-08-17T18:11:41;24.80;79.57
66576;SHT31;53428;47.686;16.584;2023-08-17T18:16:41;24.70;79.62
66576;SHT31;53428;47.686;16.584;2023-08-17T18:21:42;24.62;80.06
66576;SHT31;53428;47.686;16.584;2023-08-17T18:26:42;24.51;80.57
66576;SHT31;53428;47.686;16.584;2023-08-17T18:31:41;24.33;81.10
66576;SHT31;53428;47.686;16.584;2023-08-17T18:36:42;24.28;81.50
66576;SHT31;53428;47.686;16.584;2023-08-17T18:41:42;24.22;81.88
66576;SHT31;53428;47.686;16.584;2023-08-17T18:46:42;24.08;82.21
66576;SHT31;53428;47.686;16.584;2023-08-17T18:51:42;23.91;82.78
66576;SHT31;53428;47.686;16.584;2023-08-17T18:56:42;23.93;82.74
66576;SHT31;53428;47.686;16.584;2023-08-17T19:01:41;23.78;83.35
66576;SHT31;53428;47.686;16.584;2023-08-17T19:06:42;23.71;83.55
66576;SHT31;53428;47.686;16.584;2023-08-17T19:11:42;23.67;83.96
66576;SHT31;53428;47.686;16.584;2023-08-17T19:16:42;23.56;84.13
66576;SHT31;53428;47.686;16.584;2023-08-17T19:21:42;23.35;84.69
66576;SHT31;53428;47.686;16.584;2023-08-17T19:26:42;23.11;85.44
66576;SHT31;53428;47.686;16.584;2023-08-17T19:31:42;23.08;85.32
66576;SHT31;53428;47.686;16.584;2023-08-17T19:36:42;22.95;85.21
66576;SHT31;53428;47.686;16.584;2023-08-17T19:41:42;22.83;85.42
66576;SHT31;53428;47.686;16.584;2023-08-17T19:46:44;22.98;85.43
66576;SHT31;53428;47.686;16.584;2023-08-17T19:51:43;22.83;85.82
66576;SHT31;53428;47.686;16.584;2023-08-17T19:56:43;22.61;86.25
66576;SHT31;53428;47.686;16.584;2023-08-17T20:01:43;22.50;86.70
66576;SHT31;53428;47.686;16.584;2023-08-17T20:06:45;22.30;87.05
66576;SHT31;53428;47.686;16.584;2023-08-17T20:11:44;22.30;87.37
66576;SHT31;53428;47.686;16.584;2023-08-17T20:16:44;22.35;87.27
66576;SHT31;53428;47.686;16.584;2023-08-17T20:21:44;22.39;87.28
66576;SHT31;53428;47.686;16.584;2023-08-17T20:26:44;22.23;87.55
66576;SHT31;53428;47.686;16.584;2023-08-17T20:31:46;22.03;88.16
66576;SHT31;53428;47.686;16.584;2023-08-17T20:36:46;21.81;88.86
66576;SHT31;53428;47.686;16.584;2023-08-17T20:41:46;21.68;89.56
66576;SHT31;53428;47.686;16.584;2023-08-17T20:46:47;21.59;89.67
66576;SHT31;53428;47.686;16.584;2023-08-17T20:51:46;21.57;89.71
66576;SHT31;53428;47.686;16.584;2023-08-17T20:56:48;21.43;90.10
66576;SHT31;53428;47.686;16.584;2023-08-17T21:01:48;21.41;90.31
66576;SHT31;53428;47.686;16.584;2023-08-17T21:06:47;21.23;90.62
66576;SHT31;53428;47.686;16.584;2023-08-17T21:11:47;21.14;90.88
66576;SHT31;53428;47.686;16.584;2023-08-17T21:16:46;21.04;91.25
66576;SHT31;53428;47.686;16.584;2023-08-17T21:21:45;20.99;91.69
66576;SHT31;53428;47.686;16.584;2023-08-17T21:26:45;20.90;92.03
66576;SHT31;53428;47.686;16.584;2023-08-17T21:31:44;20.83;92.17
66576;SHT31;53428;47.686;16.584;2023-08-17T21:36:45;20.71;92.23
66576;SHT31;53428;47.686;16.584;2023-08-17T21:41:44;20.71;92.28
66576;SHT31;53428;47.686;16.584;2023-08-17T21:46:44;20.61;92.58
66576;SHT31;53428;47.686;16.584;2023-08-17T21:51:43;20.61;92.61
66576;SHT31;53428;47.686;16.584;2023-08-17T21:56:42;20.59;92.68
66576;SHT31;53428;47.686;16.584;2023-08-17T22:01:41;20.44;93.21
66576;SHT31;53428;47.686;16.584;2023-08-17T22:06:40;20.39;93.48
66576;SHT31;53428;47.686;16.584;2023-08-17T22:11:40;20.32;93.86
66576;SHT31;53428;47.686;16.584;2023-08-17T22:16:39;20.41;93.66
66576;SHT31;53428;47.686;16.584;2023-08-17T22:21:39;20.52;93.23
66576;SHT31;53428;47.686;16.584;2023-08-17T22:26:38;20.69;92.67
66576;SHT31;53428;47.686;16.584;2023-08-17T22:31:37;20.48;93.05
66576;SHT31;53428;47.686;16.584;2023-08-17T22:36:41;20.32;93.93
66576;SHT31;53428;47.686;16.584;2023-08-17T22:41:40;19.98;94.93
66576;SHT31;53428;47.686;16.584;2023-08-17T22:46:40;19.74;95.31
66576;SHT31;53428;47.686;16.584;2023-08-17T22:51:39;19.69;95.50
66576;SHT31;53428;47.686;16.584;2023-08-17T22:56:39;19.66;95.55
66576;SHT31;53428;47.686;16.584;2023-08-17T23:01:38;19.60;95.66
66576;SHT31;53428;47.686;16.584;2023-08-17T23:06:37;19.66;95.58
66576;SHT31;53428;47.686;16.584;2023-08-17T23:11:37;19.59;95.66
66576;SHT31;53428;47.686;16.584;2023-08-17T23:16:36;19.59;95.74
66576;SHT31;53428;47.686;16.584;2023-08-17T23:21:36;19.66;95.26
66576;SHT31;53428;47.686;16.584;2023-08-17T23:26:35;19.56;95.48
66576;SHT31;53428;47.686;16.584;2023-08-17T23:31:34;19.45;95.85
66576;SHT31;53428;47.686;16.584;2023-08-17T23:36:34;19.39;96.24
66576;SHT31;53428;47.686;16.584;2023-08-17T23:41:34;19.31;96.37
66576;SHT31;53428;47.686;16.584;2023-08-17T23:46:33;19.32;96.00
66576;SHT31;53428;47.686;16.584;2023-08-17T23:51:32;19.16;96.24
66576;SHT31;53428;47.686;16.584;2023-08-17T23:56:31;19.03;96.54
